Amherst, Colorado
Current Conditions -  °F | °C
As of 5:15 AM on Sunday 21 Dec 2014 (Local Time) from KHEQ Reporting Station
Clear Clear  
Wind Chill: 20°   Ceiling: Unl
Heat Index: 27°   Visibility: 10mi
Dew Point: 23°   Wind: 6mph
Humidity: 86%   Direction: 260°W
Pressure: 29.76"   Gusts: NA
Location:  40.68°N, 102.17°W
Report Text: KHEQ 211215Z AUTO 26005KT 10SM CLR M03/M05 A2976 RMK AO2
Loading
Personal Weather Stations






























Interactive Weather Map New forecast layout! Learn more

10-Day Weather Forecast

Advertisements
Track Severe Weather on mobile